sensor_id;sensor_type;location;lat;lon;timestamp;pressure;altitude;pressure_sealevel;temperature;humidity
33795;BME280;51430;52.242;21.118;2022-10-23T00:01:31;100249.27;;;13.75;100.00
33795;BME280;51430;52.242;21.118;2022-10-23T00:04:09;100250.02;;;13.73;100.00
33795;BME280;51430;52.242;21.118;2022-10-23T00:06:36;100250.43;;;13.74;100.00
33795;BME280;51430;52.242;21.118;2022-10-23T00:09:06;100254.42;;;13.77;100.00
33795;BME280;51430;52.242;21.118;2022-10-23T00:11:35;100256.52;;;13.75;100.00
33795;BME280;51430;52.242;21.118;2022-10-23T00:14:04;100256.70;;;13.75;100.00
33795;BME280;51430;52.242;21.118;2022-10-23T00:16:31;100256.09;;;13.72;100.00
33795;BME280;51430;52.242;21.118;2022-10-23T00:18:58;100261.12;;;13.72;100.00
33795;BME280;51430;52.242;21.118;2022-10-23T00:21:24;100259.93;;;13.74;100.00
33795;BME280;51430;52.242;21.118;2022-10-23T00:23:52;100262.95;;;13.73;100.00
33795;BME280;51430;52.242;21.118;2022-10-23T00:26:19;100264.46;;;13.74;100.00
33795;BME280;51430;52.242;21.118;2022-10-23T00:28:48;100265.41;;;13.75;100.00
33795;BME280;51430;52.242;21.118;2022-10-23T00:31:17;100264.63;;;13.76;100.00
33795;BME280;51430;52.242;21.118;2022-10-23T00:33:45;100264.27;;;13.76;100.00
33795;BME280;51430;52.242;21.118;2022-10-23T00:36:13;100270.52;;;13.77;100.00
33795;BME280;51430;52.242;21.118;2022-10-23T00:38:41;100273.10;;;13.77;100.00
33795;BME280;51430;52.242;21.118;2022-10-23T00:41:10;100273.45;;;13.77;100.00
33795;BME280;51430;52.242;21.118;2022-10-23T00:46:25;100277.41;;;13.78;100.00
33795;BME280;51430;52.242;21.118;2022-10-23T00:48:52;100277.77;;;13.80;100.00
33795;BME280;51430;52.242;21.118;2022-10-23T00:51:20;100279.10;;;13.81;100.00
33795;BME280;51430;52.242;21.118;2022-10-23T00:53:50;100283.42;;;13.81;100.00
33795;BME280;51430;52.242;21.118;2022-10-23T00:56:40;100286.55;;;13.78;100.00
33795;BME280;51430;52.242;21.118;2022-10-23T00:59:07;100288.93;;;13.80;100.00
33795;BME280;51430;52.242;21.118;2022-10-23T01:01:34;100288.75;;;13.82;100.00
33795;BME280;51430;52.242;21.118;2022-10-23T01:04:04;100296.09;;;13.83;100.00
33795;BME280;51430;52.242;21.118;2022-10-23T01:06:41;100299.47;;;13.82;100.00
33795;BME280;51430;52.242;21.118;2022-10-23T01:12:14;100302.54;;;13.81;100.00
33795;BME280;51430;52.242;21.118;2022-10-23T01:15:02;100302.98;;;13.76;100.00
33795;BME280;51430;52.242;21.118;2022-10-23T01:17:34;100306.46;;;13.78;100.00
33795;BME280;51430;52.242;21.118;2022-10-23T01:29:07;100316.58;;;13.87;100.00
33795;BME280;51430;52.242;21.118;2022-10-23T01:31:40;100314.83;;;13.83;100.00
33795;BME280;51430;52.242;21.118;2022-10-23T01:34:13;100319.95;;;13.86;100.00
33795;BME280;51430;52.242;21.118;2022-10-23T01:36:43;100326.42;;;13.90;100.00
33795;BME280;51430;52.242;21.118;2022-10-23T01:39:24;100324.27;;;13.93;100.00
33795;BME280;51430;52.242;21.118;2022-10-23T01:42:08;100327.43;;;13.93;100.00
33795;BME280;51430;52.242;21.118;2022-10-23T01:45:02;100325.28;;;13.91;100.00
33795;BME280;51430;52.242;21.118;2022-10-23T01:47:47;100322.58;;;13.92;100.00
33795;BME280;51430;52.242;21.118;2022-10-23T01:50:16;100320.95;;;13.98;100.00
33795;BME280;51430;52.242;21.118;2022-10-23T01:52:46;100323.06;;;13.98;100.00
33795;BME280;51430;52.242;21.118;2022-10-23T01:55:13;100325.77;;;13.99;100.00
33795;BME280;51430;52.242;21.118;2022-10-23T01:57:42;100326.77;;;14.00;100.00
33795;BME280;51430;52.242;21.118;2022-10-23T02:00:16;100327.68;;;14.01;100.00
33795;BME280;51430;52.242;21.118;2022-10-23T02:02:44;100323.70;;;14.01;100.00
33795;BME280;51430;52.242;21.118;2022-10-23T02:05:19;100328.23;;;14.03;100.00
33795;BME280;51430;52.242;21.118;2022-10-23T02:07:48;100326.90;;;14.04;100.00
33795;BME280;51430;52.242;21.118;2022-10-23T02:10:15;100330.14;;;14.05;100.00
33795;BME280;51430;52.242;21.118;2022-10-23T02:15:36;100334.59;;;14.00;100.00
33795;BME280;51430;52.242;21.118;2022-10-23T02:20:48;100339.05;;;14.03;100.00
33795;BME280;51430;52.242;21.118;2022-10-23T02:23:29;100339.80;;;13.99;100.00
33795;BME280;51430;52.242;21.118;2022-10-23T02:26:06;100342.42;;;14.01;100.00
33795;BME280;51430;52.242;21.118;2022-10-23T02:28:39;100344.84;;;14.01;100.00
33795;BME280;51430;52.242;21.118;2022-10-23T02:31:09;100343.73;;;14.04;100.00
33795;BME280;51430;52.242;21.118;2022-10-23T02:33:39;100347.16;;;14.03;100.00
33795;BME280;51430;52.242;21.118;2022-10-23T02:36:06;100351.09;;;14.02;100.00
33795;BME280;51430;52.242;21.118;2022-10-23T02:38:41;100353.28;;;13.99;100.00
33795;BME280;51430;52.242;21.118;2022-10-23T02:41:24;100355.69;;;14.00;100.00
33795;BME280;51430;52.242;21.118;2022-10-23T02:49:21;100358.38;;;13.99;100.00
33795;BME280;51430;52.242;21.118;2022-10-23T02:57:43;100358.45;;;13.98;100.00
33795;BME280;51430;52.242;21.118;2022-10-23T03:00:17;100360.59;;;13.98;100.00
33795;BME280;51430;52.242;21.118;2022-10-23T03:05:18;100365.98;;;14.00;100.00
33795;BME280;51430;52.242;21.118;2022-10-23T03:07:46;100367.63;;;14.00;100.00
33795;BME280;51430;52.242;21.118;2022-10-23T03:10:13;100367.75;;;14.00;100.00
33795;BME280;51430;52.242;21.118;2022-10-23T03:12:40;100365.84;;;14.00;100.00
33795;BME280;51430;52.242;21.118;2022-10-23T03:15:09;100361.67;;;14.01;100.00
33795;BME280;51430;52.242;21.118;2022-10-23T03:17:38;100364.23;;;14.04;100.00
33795;BME280;51430;52.242;21.118;2022-10-23T03:20:05;100359.29;;;14.05;100.00
33795;BME280;51430;52.242;21.118;2022-10-23T03:22:32;100361.14;;;14.05;100.00
33795;BME280;51430;52.242;21.118;2022-10-23T03:24:59;100363.66;;;14.05;100.00
33795;BME280;51430;52.242;21.118;2022-10-23T03:27:25;100357.71;;;14.05;100.00
33795;BME280;51430;52.242;21.118;2022-10-23T03:29:52;100356.45;;;14.01;100.00
33795;BME280;51430;52.242;21.118;2022-10-23T03:32:19;100359.63;;;13.99;100.00
33795;BME280;51430;52.242;21.118;2022-10-23T03:34:45;100360.05;;;13.96;100.00
33795;BME280;51430;52.242;21.118;2022-10-23T03:37:12;100361.66;;;13.96;100.00
33795;BME280;51430;52.242;21.118;2022-10-23T03:39:39;100363.35;;;13.95;100.00
33795;BME280;51430;52.242;21.118;2022-10-23T03:42:05;100365.90;;;13.96;100.00
33795;BME280;51430;52.242;21.118;2022-10-23T03:44:32;100362.80;;;13.95;100.00
33795;BME280;51430;52.242;21.118;2022-10-23T03:46:59;100368.14;;;13.92;100.00
33795;BME280;51430;52.242;21.118;2022-10-23T03:49:26;100377.10;;;13.88;100.00
33795;BME280;51430;52.242;21.118;2022-10-23T03:51:53;100378.13;;;13.90;100.00
33795;BME280;51430;52.242;21.118;2022-10-23T03:54:21;100379.39;;;13.91;100.00
33795;BME280;51430;52.242;21.118;2022-10-23T03:56:49;100380.92;;;13.94;100.00
33795;BME280;51430;52.242;21.118;2022-10-23T03:59:22;100380.54;;;13.97;100.00
33795;BME280;51430;52.242;21.118;2022-10-23T04:01:49;100386.35;;;13.98;100.00
33795;BME280;51430;52.242;21.118;2022-10-23T04:04:16;100384.64;;;13.99;100.00
33795;BME280;51430;52.242;21.118;2022-10-23T04:06:44;100382.73;;;13.99;100.00
33795;BME280;51430;52.242;21.118;2022-10-23T04:09:10;100387.01;;;13.95;100.00
33795;BME280;51430;52.242;21.118;2022-10-23T04:11:38;100394.32;;;13.95;100.00
33795;BME280;51430;52.242;21.118;2022-10-23T04:14:05;100396.48;;;13.95;100.00
33795;BME280;51430;52.242;21.118;2022-10-23T04:16:31;100398.77;;;13.96;100.00
33795;BME280;51430;52.242;21.118;2022-10-23T04:18:58;100402.42;;;13.95;100.00
33795;BME280;51430;52.242;21.118;2022-10-23T04:21:25;100401.95;;;13.94;100.00
33795;BME280;51430;52.242;21.118;2022-10-23T04:23:51;100402.77;;;13.93;100.00
33795;BME280;51430;52.242;21.118;2022-10-23T04:26:18;100403.21;;;13.92;100.00
33795;BME280;51430;52.242;21.118;2022-10-23T04:28:45;100409.98;;;13.95;100.00
33795;BME280;51430;52.242;21.118;2022-10-23T04:31:11;100414.31;;;13.97;100.00
33795;BME280;51430;52.242;21.118;2022-10-23T04:33:38;100413.77;;;13.95;100.00
33795;BME280;51430;52.242;21.118;2022-10-23T04:36:05;100417.18;;;13.96;100.00
33795;BME280;51430;52.242;21.118;2022-10-23T04:38:32;100415.75;;;13.97;100.00
33795;BME280;51430;52.242;21.118;2022-10-23T04:40:58;100416.95;;;13.97;100.00
33795;BME280;51430;52.242;21.118;2022-10-23T04:43:25;100416.69;;;13.96;100.00
33795;BME280;51430;52.242;21.118;2022-10-23T04:45:52;100425.76;;;13.98;100.00
33795;BME280;51430;52.242;21.118;2022-10-23T04:48:19;100427.86;;;13.93;100.00
33795;BME280;51430;52.242;21.118;2022-10-23T04:50:54;100430.30;;;13.93;100.00
33795;BME280;51430;52.242;21.118;2022-10-23T04:53:22;100431.05;;;13.88;100.00
33795;BME280;51430;52.242;21.118;2022-10-23T04:55:51;100434.23;;;13.88;100.00
33795;BME280;51430;52.242;21.118;2022-10-23T04:58:19;100433.52;;;13.88;100.00
33795;BME280;51430;52.242;21.118;2022-10-23T05:00:46;100436.15;;;13.90;100.00
33795;BME280;51430;52.242;21.118;2022-10-23T05:03:14;100437.16;;;13.87;100.00
33795;BME280;51430;52.242;21.118;2022-10-23T05:05:41;100437.02;;;13.88;100.00
33795;BME280;51430;52.242;21.118;2022-10-23T05:08:08;100440.63;;;13.89;100.00
33795;BME280;51430;52.242;21.118;2022-10-23T05:10:35;100440.52;;;13.86;100.00
33795;BME280;51430;52.242;21.118;2022-10-23T05:13:02;100444.31;;;13.87;100.00
33795;BME280;51430;52.242;21.118;2022-10-23T05:15:30;100447.91;;;13.82;100.00
33795;BME280;51430;52.242;21.118;2022-10-23T05:18:13;100442.91;;;13.83;100.00
33795;BME280;51430;52.242;21.118;2022-10-23T05:20:44;100443.69;;;13.78;100.00
33795;BME280;51430;52.242;21.118;2022-10-23T05:23:13;100444.12;;;13.73;100.00
33795;BME280;51430;52.242;21.118;2022-10-23T05:25:41;100442.64;;;13.70;100.00
33795;BME280;51430;52.242;21.118;2022-10-23T05:28:07;100446.63;;;13.64;100.00
33795;BME280;51430;52.242;21.118;2022-10-23T05:30:34;100444.02;;;13.67;100.00
33795;BME280;51430;52.242;21.118;2022-10-23T05:33:01;100442.78;;;13.68;100.00
33795;BME280;51430;52.242;21.118;2022-10-23T05:35:29;100444.84;;;13.73;100.00
33795;BME280;51430;52.242;21.118;2022-10-23T05:37:57;100442.23;;;13.75;100.00
33795;BME280;51430;52.242;21.118;2022-10-23T05:40:25;100447.05;;;13.78;100.00
33795;BME280;51430;52.242;21.118;2022-10-23T05:42:52;100450.55;;;13.76;100.00
33795;BME280;51430;52.242;21.118;2022-10-23T05:45:20;100450.13;;;13.75;100.00
33795;BME280;51430;52.242;21.118;2022-10-23T05:47:47;100454.30;;;13.73;100.00
33795;BME280;51430;52.242;21.118;2022-10-23T05:50:15;100458.96;;;13.76;100.00
33795;BME280;51430;52.242;21.118;2022-10-23T05:52:45;100461.77;;;13.72;100.00
33795;BME280;51430;52.242;21.118;2022-10-23T05:55:12;100465.66;;;13.71;100.00
33795;BME280;51430;52.242;21.118;2022-10-23T05:57:39;100471.59;;;13.76;100.00
33795;BME280;51430;52.242;21.118;2022-10-23T06:00:07;100472.86;;;13.73;100.00
33795;BME280;51430;52.242;21.118;2022-10-23T06:02:34;100478.71;;;13.72;100.00
33795;BME280;51430;52.242;21.118;2022-10-23T06:05:01;100477.34;;;13.70;100.00
33795;BME280;51430;52.242;21.118;2022-10-23T06:07:29;100475.06;;;13.70;100.00
33795;BME280;51430;52.242;21.118;2022-10-23T06:10:01;100470.65;;;13.66;100.00
33795;BME280;51430;52.242;21.118;2022-10-23T06:12:30;100469.92;;;13.71;100.00
33795;BME280;51430;52.242;21.118;2022-10-23T06:14:57;100465.55;;;13.69;100.00
33795;BME280;51430;52.242;21.118;2022-10-23T06:17:24;100472.67;;;13.73;100.00
33795;BME280;51430;52.242;21.118;2022-10-23T06:19:50;100471.27;;;13.79;100.00
33795;BME280;51430;52.242;21.118;2022-10-23T06:22:20;100474.52;;;13.84;100.00
33795;BME280;51430;52.242;21.118;2022-10-23T06:24:47;100477.13;;;13.87;100.00
33795;BME280;51430;52.242;21.118;2022-10-23T06:27:13;100487.41;;;13.85;100.00
33795;BME280;51430;52.242;21.118;2022-10-23T06:29:40;100488.11;;;13.79;100.00
33795;BME280;51430;52.242;21.118;2022-10-23T06:32:07;100486.43;;;13.82;100.00
33795;BME280;51430;52.242;21.118;2022-10-23T06:34:35;100488.52;;;13.88;100.00
33795;BME280;51430;52.242;21.118;2022-10-23T06:37:02;100499.75;;;13.92;100.00
33795;BME280;51430;52.242;21.118;2022-10-23T06:39:28;100504.45;;;13.93;100.00
33795;BME280;51430;52.242;21.118;2022-10-23T06:41:58;100505.25;;;13.81;99.96
33795;BME280;51430;52.242;21.118;2022-10-23T06:44:25;100507.88;;;13.76;100.00
33795;BME280;51430;52.242;21.118;2022-10-23T06:46:51;100506.13;;;13.74;100.00
33795;BME280;51430;52.242;21.118;2022-10-23T06:49:18;100505.55;;;13.78;100.00
33795;BME280;51430;52.242;21.118;2022-10-23T06:51:45;100512.70;;;13.83;99.57
33795;BME280;51430;52.242;21.118;2022-10-23T06:54:11;100518.11;;;13.87;99.46
33795;BME280;51430;52.242;21.118;2022-10-23T06:56:38;100523.56;;;13.93;99.05
33795;BME280;51430;52.242;21.118;2022-10-23T06:59:05;100524.77;;;14.01;98.68
33795;BME280;51430;52.242;21.118;2022-10-23T07:01:34;100529.50;;;14.05;98.42
33795;BME280;51430;52.242;21.118;2022-10-23T07:04:01;100534.42;;;14.06;97.77
33795;BME280;51430;52.242;21.118;2022-10-23T07:06:28;100530.13;;;14.11;97.64
33795;BME280;51430;52.242;21.118;2022-10-23T07:08:55;100534.05;;;14.17;97.24
33795;BME280;51430;52.242;21.118;2022-10-23T07:11:22;100539.95;;;14.25;97.34
33795;BME280;51430;52.242;21.118;2022-10-23T07:13:49;100539.67;;;14.28;97.02
33795;BME280;51430;52.242;21.118;2022-10-23T07:16:19;100537.25;;;14.30;96.58
33795;BME280;51430;52.242;21.118;2022-10-23T07:18:47;100534.65;;;14.44;96.44
33795;BME280;51430;52.242;21.118;2022-10-23T07:21:15;100530.19;;;14.58;95.96
33795;BME280;51430;52.242;21.118;2022-10-23T07:23:42;100531.27;;;14.77;94.97
33795;BME280;51430;52.242;21.118;2022-10-23T07:26:12;100534.17;;;14.93;94.12
33795;BME280;51430;52.242;21.118;2022-10-23T07:28:43;100534.24;;;15.11;93.68
33795;BME280;51430;52.242;21.118;2022-10-23T07:31:13;100534.66;;;15.10;92.46
33795;BME280;51430;52.242;21.118;2022-10-23T07:33:40;100540.09;;;15.07;91.99
33795;BME280;51430;52.242;21.118;2022-10-23T07:36:08;100541.24;;;15.04;92.26
33795;BME280;51430;52.242;21.118;2022-10-23T07:38:36;100540.63;;;14.99;92.29
33795;BME280;51430;52.242;21.118;2022-10-23T07:41:03;100538.64;;;14.94;92.43
33795;BME280;51430;52.242;21.118;2022-10-23T07:43:35;100541.04;;;14.94;92.43
33795;BME280;51430;52.242;21.118;2022-10-23T07:46:02;100543.23;;;14.94;92.61
33795;BME280;51430;52.242;21.118;2022-10-23T07:48:29;100541.98;;;14.94;92.32
33795;BME280;51430;52.242;21.118;2022-10-23T07:50:58;100535.70;;;14.99;92.10
33795;BME280;51430;52.242;21.118;2022-10-23T07:53:28;100531.78;;;15.11;92.32
33795;BME280;51430;52.242;21.118;2022-10-23T07:56:01;100529.36;;;15.24;92.80
33795;BME280;51430;52.242;21.118;2022-10-23T07:58:29;100530.55;;;15.30;92.42
33795;BME280;51430;52.242;21.118;2022-10-23T08:00:58;100532.92;;;15.31;91.65
33795;BME280;51430;52.242;21.118;2022-10-23T08:03:34;100530.87;;;15.30;91.77
33795;BME280;51430;52.242;21.118;2022-10-23T08:06:01;100533.58;;;15.39;91.70
33795;BME280;51430;52.242;21.118;2022-10-23T08:08:27;100528.27;;;15.51;91.42
33795;BME280;51430;52.242;21.118;2022-10-23T08:10:54;100525.02;;;15.74;91.37
33795;BME280;51430;52.242;21.118;2022-10-23T08:13:22;100525.58;;;16.01;90.54
33795;BME280;51430;52.242;21.118;2022-10-23T08:15:50;100522.45;;;16.35;89.28
33795;BME280;51430;52.242;21.118;2022-10-23T08:18:18;100525.36;;;16.52;87.81
33795;BME280;51430;52.242;21.118;2022-10-23T08:20:47;100528.73;;;16.59;87.36
33795;BME280;51430;52.242;21.118;2022-10-23T08:23:16;100526.24;;;16.63;87.18
33795;BME280;51430;52.242;21.118;2022-10-23T08:25:44;100526.75;;;16.68;86.87
33795;BME280;51430;52.242;21.118;2022-10-23T08:28:11;100522.98;;;16.53;86.44
33795;BME280;51430;52.242;21.118;2022-10-23T08:30:38;100523.81;;;16.46;87.64
33795;BME280;51430;52.242;21.118;2022-10-23T08:33:06;100525.61;;;16.37;87.23
33795;BME280;51430;52.242;21.118;2022-10-23T08:35:37;100534.56;;;16.16;87.71
33795;BME280;51430;52.242;21.118;2022-10-23T08:38:05;100540.86;;;16.00;88.21
33795;BME280;51430;52.242;21.118;2022-10-23T08:40:33;100539.92;;;15.86;89.04
33795;BME280;51430;52.242;21.118;2022-10-23T08:43:05;100539.05;;;15.80;89.36
33795;BME280;51430;52.242;21.118;2022-10-23T08:45:51;100536.46;;;15.61;90.10
33795;BME280;51430;52.242;21.118;2022-10-23T08:50:59;100545.42;;;15.63;90.99
33795;BME280;51430;52.242;21.118;2022-10-23T08:53:49;100548.12;;;15.51;91.07
33795;BME280;51430;52.242;21.118;2022-10-23T08:56:33;100550.14;;;15.44;91.64
33795;BME280;51430;52.242;21.118;2022-10-23T09:01:39;100548.54;;;15.62;91.67
33795;BME280;51430;52.242;21.118;2022-10-23T09:04:11;100550.22;;;15.57;91.63
33795;BME280;51430;52.242;21.118;2022-10-23T09:12:14;100547.23;;;15.90;91.11
33795;BME280;51430;52.242;21.118;2022-10-23T09:17:53;100550.09;;;15.84;91.04
33795;BME280;51430;52.242;21.118;2022-10-23T09:25:52;100548.50;;;15.93;91.80
33795;BME280;51430;52.242;21.118;2022-10-23T09:28:33;100548.10;;;15.96;91.44
33795;BME280;51430;52.242;21.118;2022-10-23T09:31:11;100544.90;;;16.01;91.13
33795;BME280;51430;52.242;21.118;2022-10-23T09:33:39;100545.58;;;16.25;90.80
33795;BME280;51430;52.242;21.118;2022-10-23T09:38:50;100548.22;;;16.52;89.86
33795;BME280;51430;52.242;21.118;2022-10-23T09:41:39;100548.48;;;16.57;89.59
33795;BME280;51430;52.242;21.118;2022-10-23T09:44:25;100550.60;;;16.61;89.35
33795;BME280;51430;52.242;21.118;2022-10-23T09:49:33;100547.44;;;16.30;90.76
33795;BME280;51430;52.242;21.118;2022-10-23T09:54:42;100551.69;;;16.35;90.70
33795;BME280;51430;52.242;21.118;2022-10-23T09:59:53;100547.91;;;16.28;91.12
33795;BME280;51430;52.242;21.118;2022-10-23T10:02:35;100546.36;;;16.24;91.64
33795;BME280;51430;52.242;21.118;2022-10-23T10:05:22;100546.31;;;16.27;91.46
33795;BME280;51430;52.242;21.118;2022-10-23T10:07:57;100541.98;;;16.46;90.73
33795;BME280;51430;52.242;21.118;2022-10-23T10:10:28;100536.14;;;16.71;89.87
33795;BME280;51430;52.242;21.118;2022-10-23T10:13:05;100536.23;;;17.02;88.48
33795;BME280;51430;52.242;21.118;2022-10-23T10:15:52;100538.17;;;17.19;87.45
33795;BME280;51430;52.242;21.118;2022-10-23T10:18:30;100538.96;;;17.16;86.51
33795;BME280;51430;52.242;21.118;2022-10-23T10:21:07;100533.77;;;16.91;87.13
33795;BME280;51430;52.242;21.118;2022-10-23T10:31:54;100545.48;;;16.87;87.39
33795;BME280;51430;52.242;21.118;2022-10-23T10:34:31;100539.17;;;16.90;87.25
33795;BME280;51430;52.242;21.118;2022-10-23T10:51:02;100528.30;;;16.55;88.77
33795;BME280;51430;52.242;21.118;2022-10-23T10:54:09;100528.15;;;16.54;89.04
33795;BME280;51430;52.242;21.118;2022-10-23T10:56:40;100526.48;;;16.55;89.70
33795;BME280;51430;52.242;21.118;2022-10-23T10:59:15;100522.23;;;16.61;89.57
33795;BME280;51430;52.242;21.118;2022-10-23T11:02:01;100519.40;;;16.63;89.06
33795;BME280;51430;52.242;21.118;2022-10-23T11:04:46;100517.77;;;16.54;89.31
33795;BME280;51430;52.242;21.118;2022-10-23T11:07:32;100516.41;;;16.52;89.28
33795;BME280;51430;52.242;21.118;2022-10-23T11:10:05;100514.14;;;16.59;89.55
33795;BME280;51430;52.242;21.118;2022-10-23T11:12:42;100508.05;;;16.74;88.54
33795;BME280;51430;52.242;21.118;2022-10-23T11:15:18;100508.27;;;16.96;87.88
33795;BME280;51430;52.242;21.118;2022-10-23T11:17:58;100510.52;;;17.14;86.92
33795;BME280;51430;52.242;21.118;2022-10-23T11:21:11;100517.07;;;17.29;86.63
33795;BME280;51430;52.242;21.118;2022-10-23T11:24:04;100512.16;;;17.10;85.63
33795;BME280;51430;52.242;21.118;2022-10-23T11:29:21;100521.06;;;16.76;86.04
33795;BME280;51430;52.242;21.118;2022-10-23T11:32:02;100519.08;;;16.71;86.12
33795;BME280;51430;52.242;21.118;2022-10-23T11:38:04;100518.25;;;16.70;86.01
33795;BME280;51430;52.242;21.118;2022-10-23T11:40:50;100520.71;;;16.70;85.50
33795;BME280;51430;52.242;21.118;2022-10-23T11:43:45;100516.78;;;16.73;85.48
33795;BME280;51430;52.242;21.118;2022-10-23T11:48:49;100514.42;;;16.75;85.17
33795;BME280;51430;52.242;21.118;2022-10-23T11:51:38;100506.45;;;16.76;85.70
33795;BME280;51430;52.242;21.118;2022-10-23T11:56:36;100503.24;;;17.14;84.29
33795;BME280;51430;52.242;21.118;2022-10-23T12:01:50;100501.09;;;17.13;83.39
33795;BME280;51430;52.242;21.118;2022-10-23T12:04:25;100497.92;;;17.01;84.10
33795;BME280;51430;52.242;21.118;2022-10-23T12:06:59;100495.77;;;17.08;84.18
33795;BME280;51430;52.242;21.118;2022-10-23T12:14:40;100487.92;;;17.35;82.83
33795;BME280;51430;52.242;21.118;2022-10-23T12:17:29;100483.26;;;17.50;82.43
33795;BME280;51430;52.242;21.118;2022-10-23T12:20:15;100479.46;;;17.68;81.94
33795;BME280;51430;52.242;21.118;2022-10-23T12:33:34;100474.33;;;18.26;79.68
33795;BME280;51430;52.242;21.118;2022-10-23T12:38:52;100477.58;;;18.19;79.89
33795;BME280;51430;52.242;21.118;2022-10-23T12:41:26;100480.09;;;17.82;80.40
33795;BME280;51430;52.242;21.118;2022-10-23T12:43:57;100477.86;;;17.78;81.41
33795;BME280;51430;52.242;21.118;2022-10-23T12:46:38;100477.23;;;17.77;81.68
33795;BME280;51430;52.242;21.118;2022-10-23T12:49:16;100478.80;;;17.69;81.75
33795;BME280;51430;52.242;21.118;2022-10-23T12:51:44;100478.83;;;17.60;82.03
33795;BME280;51430;52.242;21.118;2022-10-23T12:54:19;100473.84;;;17.62;82.58
33795;BME280;51430;52.242;21.118;2022-10-23T12:56:54;100476.55;;;17.67;82.21
33795;BME280;51430;52.242;21.118;2022-10-23T12:59:30;100473.67;;;17.59;82.46
33795;BME280;51430;52.242;21.118;2022-10-23T13:01:58;100478.00;;;17.43;83.22
33795;BME280;51430;52.242;21.118;2022-10-23T13:06:54;100479.85;;;17.38;83.79
33795;BME280;51430;52.242;21.118;2022-10-23T13:09:38;100480.78;;;17.34;83.72
33795;BME280;51430;52.242;21.118;2022-10-23T13:12:08;100487.64;;;17.22;83.66
33795;BME280;51430;52.242;21.118;2022-10-23T13:14:41;100486.92;;;17.12;83.79
33795;BME280;51430;52.242;21.118;2022-10-23T13:17:20;100488.90;;;17.08;83.34
33795;BME280;51430;52.242;21.118;2022-10-23T13:19:47;100488.21;;;17.06;83.43
33795;BME280;51430;52.242;21.118;2022-10-23T13:22:20;100494.84;;;17.07;83.47
33795;BME280;51430;52.242;21.118;2022-10-23T13:24:47;100494.91;;;17.15;83.21
33795;BME280;51430;52.242;21.118;2022-10-23T13:27:30;100496.75;;;17.21;83.30
33795;BME280;51430;52.242;21.118;2022-10-23T13:29:58;100492.16;;;17.16;83.16
33795;BME280;51430;52.242;21.118;2022-10-23T13:32:28;100491.38;;;17.22;83.31
33795;BME280;51430;52.242;21.118;2022-10-23T13:34:56;100489.48;;;17.11;82.98
33795;BME280;51430;52.242;21.118;2022-10-23T13:37:47;100492.59;;;16.91;83.91
33795;BME280;51430;52.242;21.118;2022-10-23T13:40:24;100490.61;;;16.91;84.38
33795;BME280;51430;52.242;21.118;2022-10-23T13:42:54;100488.52;;;16.92;84.71
33795;BME280;51430;52.242;21.118;2022-10-23T13:45:25;100487.15;;;16.91;84.90
33795;BME280;51430;52.242;21.118;2022-10-23T13:47:52;100487.27;;;16.86;85.01
33795;BME280;51430;52.242;21.118;2022-10-23T13:50:19;100484.95;;;16.81;85.28
33795;BME280;51430;52.242;21.118;2022-10-23T13:52:46;100486.63;;;16.79;85.60
33795;BME280;51430;52.242;21.118;2022-10-23T13:55:21;100486.20;;;16.86;85.90
33795;BME280;51430;52.242;21.118;2022-10-23T13:57:48;100485.95;;;16.85;85.84
33795;BME280;51430;52.242;21.118;2022-10-23T14:00:16;100489.16;;;16.81;86.00
33795;BME280;51430;52.242;21.118;2022-10-23T14:02:43;100487.64;;;16.74;86.08
33795;BME280;51430;52.242;21.118;2022-10-23T14:05:11;100486.73;;;16.69;86.43
33795;BME280;51430;52.242;21.118;2022-10-23T14:07:37;100486.67;;;16.66;86.77
33795;BME280;51430;52.242;21.118;2022-10-23T14:10:05;100485.52;;;16.72;87.12
33795;BME280;51430;52.242;21.118;2022-10-23T14:12:38;100482.31;;;16.72;87.44
33795;BME280;51430;52.242;21.118;2022-10-23T14:15:06;100479.20;;;16.61;87.01
33795;BME280;51430;52.242;21.118;2022-10-23T14:17:34;100476.34;;;16.65;87.53
33795;BME280;51430;52.242;21.118;2022-10-23T14:20:01;100478.34;;;16.75;87.70
33795;BME280;51430;52.242;21.118;2022-10-23T14:22:32;100475.04;;;16.78;86.71
33795;BME280;51430;52.242;21.118;2022-10-23T14:24:58;100476.38;;;16.73;86.96
33795;BME280;51430;52.242;21.118;2022-10-23T14:27:25;100477.45;;;16.75;86.56
33795;BME280;51430;52.242;21.118;2022-10-23T14:29:52;100483.80;;;16.63;86.53
33795;BME280;51430;52.242;21.118;2022-10-23T14:32:18;100488.35;;;16.54;86.89
33795;BME280;51430;52.242;21.118;2022-10-23T14:34:49;100491.95;;;16.54;87.12
33795;BME280;51430;52.242;21.118;2022-10-23T14:37:17;100493.23;;;16.51;87.05
33795;BME280;51430;52.242;21.118;2022-10-23T14:39:46;100491.41;;;16.47;87.13
33795;BME280;51430;52.242;21.118;2022-10-23T14:42:16;100493.61;;;16.44;87.22
33795;BME280;51430;52.242;21.118;2022-10-23T14:44:43;100493.43;;;16.42;87.22
33795;BME280;51430;52.242;21.118;2022-10-23T14:47:10;100490.35;;;16.38;87.43
33795;BME280;51430;52.242;21.118;2022-10-23T14:49:36;100487.13;;;16.38;87.68
33795;BME280;51430;52.242;21.118;2022-10-23T14:52:06;100488.92;;;16.32;87.61
33795;BME280;51430;52.242;21.118;2022-10-23T14:54:33;100493.90;;;16.25;87.61
33795;BME280;51430;52.242;21.118;2022-10-23T14:57:02;100490.33;;;16.20;87.73